sensor_id;sensor_type;location;lat;lon;timestamp;P1;durP1;ratioP1;P2;durP2;ratioP2
16039;SDS011;8124;48.634;8.120;2022-07-09T00:01:07;42.55;;;37.95;;
16039;SDS011;8124;48.634;8.120;2022-07-09T00:06:10;42.85;;;38.35;;
16039;SDS011;8124;48.634;8.120;2022-07-09T00:11:13;43.28;;;38.80;;
16039;SDS011;8124;48.634;8.120;2022-07-09T00:16:18;42.95;;;38.55;;
16039;SDS011;8124;48.634;8.120;2022-07-09T00:21:21;42.65;;;38.13;;
16039;SDS011;8124;48.634;8.120;2022-07-09T00:26:24;43.17;;;38.58;;
16039;SDS011;8124;48.634;8.120;2022-07-09T00:31:29;43.20;;;37.78;;
16039;SDS011;8124;48.634;8.120;2022-07-09T00:36:32;42.63;;;38.08;;
16039;SDS011;8124;48.634;8.120;2022-07-09T00:41:35;42.80;;;38.05;;
16039;SDS011;8124;48.634;8.120;2022-07-09T00:46:39;41.97;;;37.58;;
16039;SDS011;8124;48.634;8.120;2022-07-09T00:51:42;42.83;;;38.28;;
16039;SDS011;8124;48.634;8.120;2022-07-09T00:56:45;42.17;;;37.83;;
16039;SDS011;8124;48.634;8.120;2022-07-09T01:01:50;42.15;;;37.75;;
16039;SDS011;8124;48.634;8.120;2022-07-09T01:06:53;42.38;;;37.88;;
16039;SDS011;8124;48.634;8.120;2022-07-09T01:11:59;41.75;;;37.35;;
16039;SDS011;8124;48.634;8.120;2022-07-09T01:17:04;41.58;;;37.17;;
16039;SDS011;8124;48.634;8.120;2022-07-09T01:22:09;41.75;;;37.25;;
16039;SDS011;8124;48.634;8.120;2022-07-09T01:27:12;42.30;;;37.80;;
16039;SDS011;8124;48.634;8.120;2022-07-09T01:32:15;41.63;;;37.17;;
16039;SDS011;8124;48.634;8.120;2022-07-09T01:37:19;43.45;;;38.47;;
16039;SDS011;8124;48.634;8.120;2022-07-09T01:42:22;41.72;;;37.42;;
16039;SDS011;8124;48.634;8.120;2022-07-09T01:47:25;41.22;;;36.97;;
16039;SDS011;8124;48.634;8.120;2022-07-09T01:52:30;43.38;;;37.92;;
16039;SDS011;8124;48.634;8.120;2022-07-09T01:57:33;42.10;;;37.60;;
16039;SDS011;8124;48.634;8.120;2022-07-09T02:02:36;42.35;;;37.45;;
16039;SDS011;8124;48.634;8.120;2022-07-09T02:07:40;41.75;;;37.38;;
16039;SDS011;8124;48.634;8.120;2022-07-09T02:12:43;42.55;;;37.95;;
16039;SDS011;8124;48.634;8.120;2022-07-09T02:17:46;41.75;;;37.20;;
16039;SDS011;8124;48.634;8.120;2022-07-09T02:22:51;43.13;;;38.55;;
16039;SDS011;8124;48.634;8.120;2022-07-09T02:27:54;41.53;;;37.13;;
16039;SDS011;8124;48.634;8.120;2022-07-09T02:32:57;41.92;;;37.25;;
16039;SDS011;8124;48.634;8.120;2022-07-09T02:38:01;41.75;;;37.42;;
16039;SDS011;8124;48.634;8.120;2022-07-09T02:43:04;40.97;;;36.58;;
16039;SDS011;8124;48.634;8.120;2022-07-09T02:48:07;42.83;;;36.55;;
16039;SDS011;8124;48.634;8.120;2022-07-09T02:53:11;40.80;;;36.50;;
16039;SDS011;8124;48.634;8.120;2022-07-09T02:58:14;40.72;;;36.53;;
16039;SDS011;8124;48.634;8.120;2022-07-09T03:03:17;40.88;;;36.50;;
16039;SDS011;8124;48.634;8.120;2022-07-09T03:08:22;40.95;;;36.55;;
16039;SDS011;8124;48.634;8.120;2022-07-09T03:13:25;40.67;;;36.38;;
16039;SDS011;8124;48.634;8.120;2022-07-09T03:18:28;41.17;;;36.72;;
16039;SDS011;8124;48.634;8.120;2022-07-09T03:23:33;40.80;;;36.45;;
16039;SDS011;8124;48.634;8.120;2022-07-09T03:28:36;41.97;;;37.38;;
16039;SDS011;8124;48.634;8.120;2022-07-09T03:33:39;42.28;;;37.50;;
16039;SDS011;8124;48.634;8.120;2022-07-09T03:38:44;40.75;;;36.40;;
16039;SDS011;8124;48.634;8.120;2022-07-09T03:43:47;40.63;;;36.25;;
16039;SDS011;8124;48.634;8.120;2022-07-09T03:48:50;41.35;;;37.05;;
16039;SDS011;8124;48.634;8.120;2022-07-09T03:53:54;41.80;;;36.50;;
16039;SDS011;8124;48.634;8.120;2022-07-09T03:58:57;41.10;;;36.80;;
16039;SDS011;8124;48.634;8.120;2022-07-09T04:04:00;41.33;;;36.78;;
16039;SDS011;8124;48.634;8.120;2022-07-09T04:09:04;41.33;;;36.92;;
16039;SDS011;8124;48.634;8.120;2022-07-09T04:14:07;42.33;;;37.45;;
16039;SDS011;8124;48.634;8.120;2022-07-09T04:19:11;40.97;;;36.67;;
16039;SDS011;8124;48.634;8.120;2022-07-09T04:24:15;40.95;;;36.45;;
16039;SDS011;8124;48.634;8.120;2022-07-09T04:29:18;40.83;;;36.53;;
16039;SDS011;8124;48.634;8.120;2022-07-09T04:34:22;41.40;;;36.90;;
16039;SDS011;8124;48.634;8.120;2022-07-09T04:39:26;40.90;;;36.50;;
16039;SDS011;8124;48.634;8.120;2022-07-09T04:44:29;40.63;;;36.33;;
16039;SDS011;8124;48.634;8.120;2022-07-09T04:49:32;40.83;;;36.38;;
16039;SDS011;8124;48.634;8.120;2022-07-09T04:54:40;41.47;;;37.10;;
16039;SDS011;8124;48.634;8.120;2022-07-09T04:59:43;40.75;;;36.35;;
16039;SDS011;8124;48.634;8.120;2022-07-09T05:04:45;41.78;;;37.10;;
16039;SDS011;8124;48.634;8.120;2022-07-09T05:09:50;41.55;;;37.05;;
16039;SDS011;8124;48.634;8.120;2022-07-09T05:14:53;41.35;;;36.78;;
16039;SDS011;8124;48.634;8.120;2022-07-09T05:19:56;40.95;;;36.55;;
16039;SDS011;8124;48.634;8.120;2022-07-09T05:25:01;44.08;;;36.75;;
16039;SDS011;8124;48.634;8.120;2022-07-09T05:30:05;41.28;;;36.92;;
16039;SDS011;8124;48.634;8.120;2022-07-09T05:35:08;41.90;;;37.40;;
16039;SDS011;8124;48.634;8.120;2022-07-09T05:40:12;43.70;;;38.20;;
16039;SDS011;8124;48.634;8.120;2022-07-09T05:45:16;42.40;;;37.80;;
16039;SDS011;8124;48.634;8.120;2022-07-09T05:50:19;42.85;;;38.28;;
16039;SDS011;8124;48.634;8.120;2022-07-09T05:55:24;42.33;;;37.83;;
16039;SDS011;8124;48.634;8.120;2022-07-09T06:00:27;42.97;;;38.38;;
16039;SDS011;8124;48.634;8.120;2022-07-09T06:05:30;42.33;;;37.70;;
16039;SDS011;8124;48.634;8.120;2022-07-09T06:10:34;43.95;;;39.25;;
16039;SDS011;8124;48.634;8.120;2022-07-09T06:15:37;42.78;;;38.13;;
16039;SDS011;8124;48.634;8.120;2022-07-09T06:20:40;43.20;;;38.20;;
16039;SDS011;8124;48.634;8.120;2022-07-09T06:25:45;43.00;;;38.28;;
16039;SDS011;8124;48.634;8.120;2022-07-09T06:30:49;42.92;;;38.25;;
16039;SDS011;8124;48.634;8.120;2022-07-09T06:35:52;47.55;;;38.55;;
16039;SDS011;8124;48.634;8.120;2022-07-09T06:40:56;42.58;;;37.92;;
16039;SDS011;8124;48.634;8.120;2022-07-09T06:45:59;43.58;;;38.63;;
16039;SDS011;8124;48.634;8.120;2022-07-09T06:51:02;42.72;;;38.22;;
16039;SDS011;8124;48.634;8.120;2022-07-09T06:56:07;43.08;;;38.47;;
16039;SDS011;8124;48.634;8.120;2022-07-09T07:01:10;43.20;;;38.60;;
16039;SDS011;8124;48.634;8.120;2022-07-09T07:06:13;43.47;;;38.70;;
16039;SDS011;8124;48.634;8.120;2022-07-09T07:11:17;44.85;;;39.53;;
16039;SDS011;8124;48.634;8.120;2022-07-09T07:16:21;44.72;;;39.55;;
16039;SDS011;8124;48.634;8.120;2022-07-09T07:21:25;47.70;;;41.80;;
16039;SDS011;8124;48.634;8.120;2022-07-09T07:26:29;47.33;;;41.05;;
16039;SDS011;8124;48.634;8.120;2022-07-09T07:31:32;47.55;;;40.17;;
16039;SDS011;8124;48.634;8.120;2022-07-09T07:36:38;45.85;;;40.85;;
16039;SDS011;8124;48.634;8.120;2022-07-09T07:41:42;44.67;;;39.78;;
16039;SDS011;8124;48.634;8.120;2022-07-09T07:46:45;44.63;;;39.83;;
16039;SDS011;8124;48.634;8.120;2022-07-09T07:51:48;45.50;;;40.60;;
16039;SDS011;8124;48.634;8.120;2022-07-09T07:56:53;44.13;;;39.45;;
16039;SDS011;8124;48.634;8.120;2022-07-09T08:01:56;43.92;;;39.20;;
16039;SDS011;8124;48.634;8.120;2022-07-09T08:06:59;47.55;;;39.92;;
16039;SDS011;8124;48.634;8.120;2022-07-09T08:12:04;43.08;;;38.58;;
16039;SDS011;8124;48.634;8.120;2022-07-09T08:17:07;48.83;;;38.63;;
16039;SDS011;8124;48.634;8.120;2022-07-09T08:22:10;43.22;;;38.72;;
16039;SDS011;8124;48.634;8.120;2022-07-09T08:27:14;43.78;;;39.08;;
16039;SDS011;8124;48.634;8.120;2022-07-09T08:32:17;43.03;;;38.45;;
16039;SDS011;8124;48.634;8.120;2022-07-09T08:37:20;43.80;;;39.10;;
16039;SDS011;8124;48.634;8.120;2022-07-09T08:42:24;43.28;;;38.78;;
16039;SDS011;8124;48.634;8.120;2022-07-09T08:47:27;42.95;;;38.35;;
16039;SDS011;8124;48.634;8.120;2022-07-09T08:52:32;45.30;;;39.10;;
16039;SDS011;8124;48.634;8.120;2022-07-09T08:57:37;44.13;;;39.33;;
16039;SDS011;8124;48.634;8.120;2022-07-09T09:02:40;45.03;;;40.47;;
16039;SDS011;8124;48.634;8.120;2022-07-09T09:07:44;43.67;;;38.97;;
16039;SDS011;8124;48.634;8.120;2022-07-09T09:12:48;44.97;;;39.22;;
16039;SDS011;8124;48.634;8.120;2022-07-09T09:17:52;43.67;;;38.92;;
16039;SDS011;8124;48.634;8.120;2022-07-09T09:22:55;43.53;;;38.83;;
16039;SDS011;8124;48.634;8.120;2022-07-09T09:28:04;44.33;;;39.25;;
16039;SDS011;8124;48.634;8.120;2022-07-09T09:33:08;44.15;;;39.45;;
16039;SDS011;8124;48.634;8.120;2022-07-09T09:38:11;43.80;;;39.13;;
16039;SDS011;8124;48.634;8.120;2022-07-09T09:43:15;44.40;;;39.60;;
16039;SDS011;8124;48.634;8.120;2022-07-09T09:48:23;42.97;;;38.55;;
16039;SDS011;8124;48.634;8.120;2022-07-09T09:53:26;43.70;;;39.10;;
16039;SDS011;8124;48.634;8.120;2022-07-09T09:58:31;44.22;;;39.42;;
16039;SDS011;8124;48.634;8.120;2022-07-09T10:03:36;43.88;;;39.15;;
16039;SDS011;8124;48.634;8.120;2022-07-09T10:08:41;43.33;;;38.80;;
16039;SDS011;8124;48.634;8.120;2022-07-09T10:13:54;43.30;;;38.78;;
16039;SDS011;8124;48.634;8.120;2022-07-09T10:18:57;43.50;;;39.03;;
16039;SDS011;8124;48.634;8.120;2022-07-09T10:24:00;43.78;;;39.17;;
16039;SDS011;8124;48.634;8.120;2022-07-09T10:29:18;43.08;;;38.67;;
16039;SDS011;8124;48.634;8.120;2022-07-09T10:39:56;43.72;;;39.00;;
16039;SDS011;8124;48.634;8.120;2022-07-09T10:45:00;44.00;;;39.20;;
16039;SDS011;8124;48.634;8.120;2022-07-09T10:50:03;43.33;;;38.67;;
16039;SDS011;8124;48.634;8.120;2022-07-09T10:55:07;43.65;;;39.08;;
16039;SDS011;8124;48.634;8.120;2022-07-09T11:00:14;43.03;;;38.53;;
16039;SDS011;8124;48.634;8.120;2022-07-09T11:05:21;44.38;;;39.88;;
16039;SDS011;8124;48.634;8.120;2022-07-09T11:10:25;43.97;;;39.38;;
16039;SDS011;8124;48.634;8.120;2022-07-09T11:15:30;43.63;;;39.15;;
16039;SDS011;8124;48.634;8.120;2022-07-09T11:20:37;43.15;;;38.65;;
16039;SDS011;8124;48.634;8.120;2022-07-09T11:25:41;43.28;;;38.83;;
16039;SDS011;8124;48.634;8.120;2022-07-09T11:30:46;42.60;;;38.20;;
16039;SDS011;8124;48.634;8.120;2022-07-09T11:36:00;43.13;;;38.70;;
16039;SDS011;8124;48.634;8.120;2022-07-09T11:41:03;42.97;;;38.58;;
16039;SDS011;8124;48.634;8.120;2022-07-09T11:46:08;43.03;;;38.58;;
16039;SDS011;8124;48.634;8.120;2022-07-09T11:51:11;43.00;;;38.50;;
16039;SDS011;8124;48.634;8.120;2022-07-09T11:56:14;42.90;;;38.50;;
16039;SDS011;8124;48.634;8.120;2022-07-09T12:01:18;43.70;;;39.10;;
16039;SDS011;8124;48.634;8.120;2022-07-09T12:06:22;43.13;;;38.53;;
16039;SDS011;8124;48.634;8.120;2022-07-09T12:11:25;43.33;;;38.83;;
16039;SDS011;8124;48.634;8.120;2022-07-09T12:16:30;43.75;;;39.25;;
16039;SDS011;8124;48.634;8.120;2022-07-09T12:21:33;43.75;;;39.35;;
16039;SDS011;8124;48.634;8.120;2022-07-09T12:26:37;44.25;;;39.75;;
16039;SDS011;8124;48.634;8.120;2022-07-09T12:32:01;43.97;;;39.50;;
16039;SDS011;8124;48.634;8.120;2022-07-09T12:37:04;44.00;;;39.50;;
16039;SDS011;8124;48.634;8.120;2022-07-09T12:42:07;43.78;;;39.38;;
16039;SDS011;8124;48.634;8.120;2022-07-09T12:47:12;44.45;;;39.90;;
16039;SDS011;8124;48.634;8.120;2022-07-09T12:52:15;43.92;;;39.45;;
16039;SDS011;8124;48.634;8.120;2022-07-09T12:57:18;43.85;;;39.28;;
16039;SDS011;8124;48.634;8.120;2022-07-09T13:02:23;43.53;;;39.13;;
16039;SDS011;8124;48.634;8.120;2022-07-09T13:07:27;44.08;;;39.60;;
16039;SDS011;8124;48.634;8.120;2022-07-09T13:12:29;44.03;;;39.55;;
16039;SDS011;8124;48.634;8.120;2022-07-09T13:17:35;44.03;;;39.50;;
16039;SDS011;8124;48.634;8.120;2022-07-09T13:22:38;44.50;;;39.80;;
16039;SDS011;8124;48.634;8.120;2022-07-09T13:27:41;43.85;;;39.25;;
16039;SDS011;8124;48.634;8.120;2022-07-09T13:32:45;44.25;;;39.55;;
16039;SDS011;8124;48.634;8.120;2022-07-09T13:37:48;44.35;;;39.75;;
16039;SDS011;8124;48.634;8.120;2022-07-09T13:42:51;44.47;;;39.78;;
16039;SDS011;8124;48.634;8.120;2022-07-09T13:47:55;44.22;;;39.72;;
16039;SDS011;8124;48.634;8.120;2022-07-09T13:52:58;44.38;;;39.88;;
16039;SDS011;8124;48.634;8.120;2022-07-09T13:58:02;44.05;;;39.42;;
16039;SDS011;8124;48.634;8.120;2022-07-09T14:03:06;43.88;;;39.38;;
16039;SDS011;8124;48.634;8.120;2022-07-09T14:08:10;43.67;;;39.25;;
16039;SDS011;8124;48.634;8.120;2022-07-09T14:13:20;44.45;;;39.85;;
16039;SDS011;8124;48.634;8.120;2022-07-09T14:18:25;43.92;;;39.42;;
16039;SDS011;8124;48.634;8.120;2022-07-09T14:23:28;44.15;;;39.60;;
16039;SDS011;8124;48.634;8.120;2022-07-09T14:28:31;43.95;;;39.35;;
16039;SDS011;8124;48.634;8.120;2022-07-09T14:33:35;44.03;;;39.42;;
16039;SDS011;8124;48.634;8.120;2022-07-09T14:38:38;44.60;;;39.92;;
16039;SDS011;8124;48.634;8.120;2022-07-09T14:43:42;44.17;;;39.58;;
16039;SDS011;8124;48.634;8.120;2022-07-09T14:48:47;44.78;;;40.28;;
16039;SDS011;8124;48.634;8.120;2022-07-09T14:53:50;44.40;;;39.90;;
16039;SDS011;8124;48.634;8.120;2022-07-09T14:58:53;44.25;;;39.78;;
16039;SDS011;8124;48.634;8.120;2022-07-09T15:03:57;45.10;;;40.30;;
16039;SDS011;8124;48.634;8.120;2022-07-09T15:09:00;44.38;;;39.88;;
16039;SDS011;8124;48.634;8.120;2022-07-09T15:14:03;44.38;;;39.85;;
16039;SDS011;8124;48.634;8.120;2022-07-09T15:19:07;44.45;;;39.85;;
16039;SDS011;8124;48.634;8.120;2022-07-09T15:24:10;44.58;;;40.03;;
16039;SDS011;8124;48.634;8.120;2022-07-09T15:29:13;44.63;;;40.13;;
16039;SDS011;8124;48.634;8.120;2022-07-09T15:34:17;44.10;;;39.60;;
16039;SDS011;8124;48.634;8.120;2022-07-09T15:39:20;44.28;;;39.83;;
16039;SDS011;8124;48.634;8.120;2022-07-09T15:44:23;44.42;;;39.83;;
16039;SDS011;8124;48.634;8.120;2022-07-09T15:49:29;44.33;;;39.80;;
16039;SDS011;8124;48.634;8.120;2022-07-09T15:54:32;44.15;;;39.65;;
16039;SDS011;8124;48.634;8.120;2022-07-09T15:59:35;44.80;;;40.25;;
16039;SDS011;8124;48.634;8.120;2022-07-09T16:04:40;45.45;;;40.85;;
16039;SDS011;8124;48.634;8.120;2022-07-09T16:09:43;44.80;;;40.20;;
16039;SDS011;8124;48.634;8.120;2022-07-09T16:14:46;45.33;;;40.80;;
16039;SDS011;8124;48.634;8.120;2022-07-09T16:19:50;44.63;;;40.13;;
16039;SDS011;8124;48.634;8.120;2022-07-09T16:24:54;45.05;;;40.45;;
16039;SDS011;8124;48.634;8.120;2022-07-09T16:29:57;44.63;;;39.92;;
16039;SDS011;8124;48.634;8.120;2022-07-09T16:35:06;44.38;;;39.88;;
16039;SDS011;8124;48.634;8.120;2022-07-09T16:40:10;44.92;;;40.45;;
16039;SDS011;8124;48.634;8.120;2022-07-09T16:45:13;44.30;;;39.83;;
16039;SDS011;8124;48.634;8.120;2022-07-09T16:50:18;44.85;;;40.28;;
16039;SDS011;8124;48.634;8.120;2022-07-09T16:55:21;45.33;;;40.63;;
16039;SDS011;8124;48.634;8.120;2022-07-09T17:00:24;44.90;;;40.17;;
16039;SDS011;8124;48.634;8.120;2022-07-09T17:05:30;44.72;;;40.25;;
16039;SDS011;8124;48.634;8.120;2022-07-09T17:10:33;44.53;;;40.03;;
16039;SDS011;8124;48.634;8.120;2022-07-09T17:15:36;45.45;;;40.75;;
16039;SDS011;8124;48.634;8.120;2022-07-09T17:20:40;44.92;;;40.35;;
16039;SDS011;8124;48.634;8.120;2022-07-09T17:25:43;44.67;;;40.05;;
16039;SDS011;8124;48.634;8.120;2022-07-09T17:30:46;45.25;;;40.55;;
16039;SDS011;8124;48.634;8.120;2022-07-09T17:35:51;44.45;;;39.95;;
16039;SDS011;8124;48.634;8.120;2022-07-09T17:40:54;45.55;;;40.80;;
16039;SDS011;8124;48.634;8.120;2022-07-09T17:45:57;45.05;;;40.45;;
16039;SDS011;8124;48.634;8.120;2022-07-09T17:51:01;44.78;;;40.22;;
16039;SDS011;8124;48.634;8.120;2022-07-09T17:56:04;45.03;;;40.42;;
16039;SDS011;8124;48.634;8.120;2022-07-09T18:01:08;44.92;;;40.42;;
16039;SDS011;8124;48.634;8.120;2022-07-09T18:06:14;45.22;;;40.33;;
16039;SDS011;8124;48.634;8.120;2022-07-09T18:11:19;45.30;;;40.40;;
16039;SDS011;8124;48.634;8.120;2022-07-09T18:16:22;45.28;;;40.67;;
16039;SDS011;8124;48.634;8.120;2022-07-09T18:21:32;44.97;;;40.25;;
16039;SDS011;8124;48.634;8.120;2022-07-09T18:26:35;44.72;;;40.22;;
16039;SDS011;8124;48.634;8.120;2022-07-09T18:31:38;45.65;;;40.97;;
16039;SDS011;8124;48.634;8.120;2022-07-09T18:36:43;45.00;;;40.40;;
16039;SDS011;8124;48.634;8.120;2022-07-09T18:41:46;45.35;;;40.65;;
16039;SDS011;8124;48.634;8.120;2022-07-09T18:46:49;45.00;;;40.28;;
16039;SDS011;8124;48.634;8.120;2022-07-09T18:51:53;44.95;;;40.40;;
16039;SDS011;8124;48.634;8.120;2022-07-09T18:56:56;44.63;;;40.17;;
16039;SDS011;8124;48.634;8.120;2022-07-09T19:02:00;45.30;;;40.70;;
16039;SDS011;8124;48.634;8.120;2022-07-09T19:07:05;44.60;;;40.03;;
16039;SDS011;8124;48.634;8.120;2022-07-09T19:12:08;45.10;;;40.15;;
16039;SDS011;8124;48.634;8.120;2022-07-09T19:17:11;44.80;;;40.22;;
16039;SDS011;8124;48.634;8.120;2022-07-09T19:22:16;44.63;;;40.15;;
16039;SDS011;8124;48.634;8.120;2022-07-09T19:27:18;45.20;;;40.60;;
16039;SDS011;8124;48.634;8.120;2022-07-09T19:32:26;45.13;;;40.53;;
16039;SDS011;8124;48.634;8.120;2022-07-09T19:37:48;44.55;;;39.95;;
16039;SDS011;8124;48.634;8.120;2022-07-09T19:42:51;44.55;;;40.05;;
16039;SDS011;8124;48.634;8.120;2022-07-09T19:47:54;44.75;;;40.20;;
16039;SDS011;8124;48.634;8.120;2022-07-09T19:52:59;44.28;;;39.67;;
16039;SDS011;8124;48.634;8.120;2022-07-09T19:58:02;44.22;;;39.72;;
16039;SDS011;8124;48.634;8.120;2022-07-09T20:03:05;44.13;;;39.63;;
16039;SDS011;8124;48.634;8.120;2022-07-09T20:08:11;44.30;;;39.70;;
16039;SDS011;8124;48.634;8.120;2022-07-09T20:13:14;44.65;;;39.95;;
16039;SDS011;8124;48.634;8.120;2022-07-09T20:18:17;44.80;;;40.17;;
16039;SDS011;8124;48.634;8.120;2022-07-09T20:23:29;44.42;;;39.75;;
16039;SDS011;8124;48.634;8.120;2022-07-09T20:28:32;45.65;;;39.58;;
16039;SDS011;8124;48.634;8.120;2022-07-09T20:33:35;44.00;;;39.40;;
16039;SDS011;8124;48.634;8.120;2022-07-09T20:38:44;43.97;;;39.38;;
16039;SDS011;8124;48.634;8.120;2022-07-09T20:43:47;43.85;;;39.28;;
16039;SDS011;8124;48.634;8.120;2022-07-09T20:48:50;43.45;;;38.95;;
16039;SDS011;8124;48.634;8.120;2022-07-09T20:53:54;44.03;;;39.42;;
16039;SDS011;8124;48.634;8.120;2022-07-09T20:58:57;43.65;;;39.15;;
16039;SDS011;8124;48.634;8.120;2022-07-09T21:04:00;43.75;;;39.25;;
16039;SDS011;8124;48.634;8.120;2022-07-09T21:09:05;43.22;;;38.72;;
16039;SDS011;8124;48.634;8.120;2022-07-09T21:14:08;43.50;;;39.05;;
16039;SDS011;8124;48.634;8.120;2022-07-09T21:19:10;43.33;;;38.90;;
16039;SDS011;8124;48.634;8.120;2022-07-09T21:24:15;43.90;;;39.30;;
16039;SDS011;8124;48.634;8.120;2022-07-09T21:29:18;43.10;;;38.70;;
16039;SDS011;8124;48.634;8.120;2022-07-09T21:34:21;42.97;;;38.42;;
16039;SDS011;8124;48.634;8.120;2022-07-09T21:39:25;43.15;;;38.75;;
16039;SDS011;8124;48.634;8.120;2022-07-09T21:44:28;44.38;;;39.05;;
16039;SDS011;8124;48.634;8.120;2022-07-09T21:49:33;43.15;;;38.75;;
16039;SDS011;8124;48.634;8.120;2022-07-09T21:54:37;43.20;;;38.80;;
16039;SDS011;8124;48.634;8.120;2022-07-09T21:59:40;44.05;;;39.25;;
16039;SDS011;8124;48.634;8.120;2022-07-09T22:04:43;43.85;;;39.25;;
16039;SDS011;8124;48.634;8.120;2022-07-09T22:09:47;44.25;;;39.63;;
16039;SDS011;8124;48.634;8.120;2022-07-09T22:14:50;43.75;;;39.25;;
16039;SDS011;8124;48.634;8.120;2022-07-09T22:19:53;43.58;;;38.95;;
16039;SDS011;8124;48.634;8.120;2022-07-09T22:24:58;43.25;;;38.75;;
16039;SDS011;8124;48.634;8.120;2022-07-09T22:30:01;43.45;;;38.95;;
16039;SDS011;8124;48.634;8.120;2022-07-09T22:35:04;45.25;;;39.33;;
16039;SDS011;8124;48.634;8.120;2022-07-09T22:40:09;42.85;;;38.45;;
16039;SDS011;8124;48.634;8.120;2022-07-09T22:45:13;43.60;;;38.88;;
16039;SDS011;8124;48.634;8.120;2022-07-09T22:50:16;43.42;;;38.83;;
16039;SDS011;8124;48.634;8.120;2022-07-09T22:55:21;43.75;;;39.10;;
16039;SDS011;8124;48.634;8.120;2022-07-09T23:00:24;43.95;;;39.38;;
16039;SDS011;8124;48.634;8.120;2022-07-09T23:05:39;43.55;;;39.05;;
16039;SDS011;8124;48.634;8.120;2022-07-09T23:10:44;44.03;;;39.30;;
16039;SDS011;8124;48.634;8.120;2022-07-09T23:15:47;43.20;;;38.70;;
16039;SDS011;8124;48.634;8.120;2022-07-09T23:20:50;43.22;;;38.78;;
16039;SDS011;8124;48.634;8.120;2022-07-09T23:25:54;43.00;;;38.53;;
16039;SDS011;8124;48.634;8.120;2022-07-09T23:30:57;43.03;;;38.50;;
16039;SDS011;8124;48.634;8.120;2022-07-09T23:41:40;43.13;;;38.63;;
16039;SDS011;8124;48.634;8.120;2022-07-09T23:46:43;43.17;;;38.67;;
16039;SDS011;8124;48.634;8.120;2022-07-09T23:51:46;43.17;;;38.70;;
16039;SDS011;8124;48.634;8.120;2022-07-09T23:56:51;43.95;;;39.05;;
